Whitney, Texas
Current Conditions -  °F | °C
As of 7:35 AM on Saturday 25 Oct 2014 (Local Time) from KINJ Reporting Station
Clear Clear  
Wind Chill: 63°   Ceiling: Unl
Heat Index: 63°   Visibility: 10mi
Dew Point: 56°   Wind: 6mph
Humidity: 78%   Direction: 160°SSE
Pressure: 30.14"   Gusts: NA
Location:  31.95°N, 97.32°W
Report Text: KINJ 251235Z AUTO 16005KT 10SM CLR 17/13 A3014 RMK AO2 T01700131
Loading
Personal Weather Stations






























Interactive Weather Map
Tropical Storm Tracking
New forecast layout! Learn more

10-Day Weather Forecast

Advertisements
Track Severe Weather on mobile